地図

経路データ

SID SEASON NUMBER BASIN SUBBASIN NAME ISO_TIME NATURE LAT LON WMO_WIND WMO_PRES WMO_AGENCY TRACK_TYPE DIST2LAND LANDFALL IFLAG USA_AGENCY USA_ATCF_ID USA_LAT USA_LON USA_RECORD USA_STATUS USA_WIND USA_PRES USA_SSHS USA_R34_NE USA_R34_SE USA_R34_SW USA_R34_NW USA_R50_NE USA_R50_SE USA_R50_SW USA_R50_NW USA_R64_NE USA_R64_SE USA_R64_SW USA_R64_NW USA_POCI USA_ROCI USA_RMW USA_EYE TOKYO_LAT TOKYO_LON TOKYO_GRADE TOKYO_WIND TOKYO_PRES TOKYO_R50_DIR TOKYO_R50_LONG TOKYO_R50_SHORT TOKYO_R30_DIR TOKYO_R30_LONG TOKYO_R30_SHORT TOKYO_LAND CMA_LAT CMA_LON CMA_CAT CMA_WIND CMA_PRES HKO_LAT HKO_LON HKO_CAT HKO_WIND HKO_PRES NEWDELHI_LAT NEWDELHI_LON NEWDELHI_GRADE NEWDELHI_WIND NEWDELHI_PRES NEWDELHI_CI NEWDELHI_DP NEWDELHI_POCI REUNION_LAT REUNION_LON REUNION_TYPE REUNION_WIND REUNION_PRES REUNION_TNUM REUNION_CI REUNION_RMW REUNION_R34_NE REUNION_R34_SE REUNION_R34_SW REUNION_R34_NW REUNION_R50_NE REUNION_R50_SE REUNION_R50_SW REUNION_R50_NW REUNION_R64_NE REUNION_R64_SE REUNION_R64_SW REUNION_R64_NW BOM_LAT BOM_LON BOM_TYPE BOM_WIND BOM_PRES BOM_TNUM BOM_CI BOM_RMW BOM_R34_NE BOM_R34_SE BOM_R34_SW BOM_R34_NW BOM_R50_NE BOM_R50_SE BOM_R50_SW BOM_R50_NW BOM_R64_NE BOM_R64_SE BOM_R64_SW BOM_R64_NW BOM_ROCI BOM_POCI BOM_EYE BOM_POS_METHOD BOM_PRES_METHOD NADI_LAT NADI_LON NADI_CAT NADI_WIND NADI_PRES WELLINGTON_LAT WELLINGTON_LON WELLINGTON_WIND WELLINGTON_PRES DS824_LAT DS824_LON DS824_STAGE DS824_WIND DS824_PRES TD9636_LAT TD9636_LON TD9636_STAGE TD9636_WIND TD9636_PRES TD9635_LAT TD9635_LON TD9635_WIND TD9635_PRES TD9635_ROCI NEUMANN_LAT NEUMANN_LON NEUMANN_CLASS NEUMANN_WIND NEUMANN_PRES MLC_LAT MLC_LON MLC_CLASS MLC_WIND MLC_PRES USA_GUST BOM_GUST BOM_GUST_PER REUNION_GUST REUNION_GUST_PER USA_SEAHGT USA_SEARAD_NE USA_SEARAD_SE USA_SEARAD_SW USA_SEARAD_NW STORM_SPEED STORM_DIR
1979213N17306 1979 62 NA NA NOT_NAMED 1979-07-31 12:00:00 TS 17.0000 -54.0000 25 hurdat_atl main 1033 975 O_____________ hurdat_atl AL081979 17.0000 -54.0000 TD 25 -1 23 285
1979213N17306 1979 62 NA NA NOT_NAMED 1979-07-31 15:00:00 TS 17.3011 -55.1417 main 975 926 P_____________ AL081979 17.3011 -55.1417 TD 25 -1 23 285
1979213N17306 1979 62 NA NA NOT_NAMED 1979-07-31 18:00:00 TS 17.6000 -56.3000 25 hurdat_atl main 923 867 O_____________ hurdat_atl AL081979 17.6000 -56.3000 TD 25 -1 23 285
1979213N17306 1979 62 NA NA NOT_NAMED 1979-07-31 21:00:00 TS 17.9122 -57.4732 main 857 749 P_____________ AL081979 17.9122 -57.4732 TD 25 -1 23 288
1979213N17306 1979 62 NA NA NOT_NAMED 1979-08-01 00:00:00 TS 18.3000 -58.6000 25 hurdat_atl main 738 633 O_____________ hurdat_atl AL081979 18.3000 -58.6000 TD 25 -1 23 293
1979213N17306 1979 62 NA NA NOT_NAMED 1979-08-01 03:00:00 TS 18.8044 -59.6453 main 633 546 P_____________ AL081979 18.8044 -59.6453 TD 25 -1 22 300
1979213N17306 1979 62 NA NA NOT_NAMED 1979-08-01 06:00:00 TS 19.4000 -60.6000 25 hurdat_atl main 537 466 O_____________ hurdat_atl AL081979 19.4000 -60.6000 TD 25 -1 22 305
1979213N17306 1979 62 NA NA NOT_NAMED 1979-08-01 09:00:00 TS 20.0422 -61.5101 main 466 430 P_____________ AL081979 20.0422 -61.5101 TD 27 -1 21 309
1979213N17306 1979 62 NA NA NOT_NAMED 1979-08-01 12:00:00 TS 20.7000 -62.3000 30 hurdat_atl main 430 420 O_____________ hurdat_atl AL081979 20.7000 -62.3000 TD 30 -1 18 314
1979213N17306 1979 62 NA NA NOT_NAMED 1979-08-01 15:00:00 TS 21.3142 -62.9310 main 430 423 P_____________ AL081979 21.3142 -62.9310 TD 30 -1 16 317
1979213N17306 1979 62 NA NA NOT_NAMED 1979-08-01 18:00:00 TS 21.9000 -63.5000 30 hurdat_atl main 448 448 O_____________ hurdat_atl AL081979 21.9000 -63.5000 TD 30 -1 16 314
1979213N17306 1979 62 NA NA NOT_NAMED 1979-08-01 21:00:00 TS 22.4353 -64.1877 main 470 470 P_____________ AL081979 22.4353 -64.1877 TD 30 -1 16 312
1979213N17306 1979 62 NA NA NOT_NAMED 1979-08-02 00:00:00 TS 23.0000 -64.8000 30 hurdat_atl main 521 521 O_____________ hurdat_atl AL081979 23.0000 -64.8000 TD 30 -1 15 324
1979213N17306 1979 62 NA NA NOT_NAMED 1979-08-02 03:00:00 TS 23.6693 -65.1664 main 594 594 P_____________ AL081979 23.6693 -65.1664 TD 30 -1 15 335
1979213N17306 1979 62 NA NA NOT_NAMED 1979-08-02 06:00:00 TS 24.4000 -65.5000 30 hurdat_atl main 670 670 O_____________ hurdat_atl AL081979 24.4000 -65.5000 TD 30 -1 17 331
1979213N17306 1979 62 NA NA NOT_NAMED 1979-08-02 09:00:00 TS 25.1730 -66.0713 main 737 737 P_____________ AL081979 25.1730 -66.0713 TD 30 -1 18 326
1979213N17306 1979 62 NA NA NOT_NAMED 1979-08-02 12:00:00 TS 25.9000 -66.6000 30 hurdat_atl main 785 785 O_____________ hurdat_atl AL081979 25.9000 -66.6000 TD 30 -1 15 332
1979213N17306 1979 62 NA NA NOT_NAMED 1979-08-02 15:00:00 TS 26.4871 -66.8463 main 837 833 P_____________ AL081979 26.4871 -66.8463 TD 30 -1 12 342
1979213N17306 1979 62 NA NA NOT_NAMED 1979-08-02 18:00:00 TS 27.0000 -67.0000 30 hurdat_atl main 881 881 O_____________ hurdat_atl AL081979 27.0000 -67.0000 TD 30 -1 11 341
1979213N17306 1979 62 NA NA NOT_NAMED 1979-08-02 21:00:00 TS 27.5000 -67.2427 main 916 909 P_____________ AL081979 27.5000 -67.2427 TD 30 -1 11 336
1979213N17306 1979 62 NA NA NOT_NAMED 1979-08-03 00:00:00 TS 28.0000 -67.5000 30 hurdat_atl main 941 941 O_____________ hurdat_atl AL081979 28.0000 -67.5000 TD 30 -1 11 336
1979213N17306 1979 62 NA NA NOT_NAMED 1979-08-03 03:00:00 TS 28.5426 -67.7797 main 969 969 P_____________ AL081979 28.5426 -67.7797 TD 30 -1 12 338
1979213N17306 1979 62 NA NA NOT_NAMED 1979-08-03 06:00:00 TS 29.1000 -68.0000 30 hurdat_atl main 1013 969 O_____________ hurdat_atl AL081979 29.1000 -68.0000 TD 30 -1 11 347
1979213N17306 1979 62 NA NA NOT_NAMED 1979-08-03 09:00:00 TS 29.5974 -68.0586 main 969 928 P_____________ AL081979 29.5974 -68.0586 TD 30 -1 11 355
1979213N17306 1979 62 NA NA NOT_NAMED 1979-08-03 12:00:00 TS 30.2000 -68.1000 30 hurdat_atl main 928 854 O_____________ hurdat_atl AL081979 30.2000 -68.1000 TD 30 -1 15 352
1979213N17306 1979 62 NA NA NOT_NAMED 1979-08-03 15:00:00 TS 31.0702 -68.3062 main 847 771 P_____________ AL081979 31.0702 -68.3062 TD 30 -1 18 349
1979213N17306 1979 62 NA NA NOT_NAMED 1979-08-03 18:00:00 TS 32.0000 -68.5000 30 hurdat_atl main 771 728 O_____________ hurdat_atl AL081979 32.0000 -68.5000 TD 30 -1 17 354
1979213N17306 1979 62 NA NA NOT_NAMED 1979-08-03 21:00:00 TS 32.7724 -68.5308 main 723 688 P_____________ AL081979 32.7724 -68.5308 TD 30 -1 15 0
1979213N17306 1979 62 NA NA NOT_NAMED 1979-08-04 00:00:00 TS 33.5000 -68.5000 30 hurdat_atl main 688 660 O_____________ hurdat_atl AL081979 33.5000 -68.5000 TD 30 -1 15 1
1979213N17306 1979 62 NA NA NOT_NAMED 1979-08-04 03:00:00 TS 34.2425 -68.5073 main 660 639 P_____________ AL081979 34.2425 -68.5073 TD 30 -1 15 0
1979213N17306 1979 62 NA NA NOT_NAMED 1979-08-04 06:00:00 TS 35.0000 -68.5000 30 hurdat_atl main 639 630 O_____________ hurdat_atl AL081979 35.0000 -68.5000 TD 30 -1 15 0
1979213N17306 1979 62 NA NA NOT_NAMED 1979-08-04 09:00:00 TS 35.7697 -68.5155 main 629 580 P_____________ AL081979 35.7697 -68.5155 TD 30 -1 16 3
1979213N17306 1979 62 NA NA NOT_NAMED 1979-08-04 12:00:00 TS 36.6000 -68.4000 30 hurdat_atl main 580 497 O_____________ hurdat_atl AL081979 36.6000 -68.4000 TD 30 -1 18 13
1979213N17306 1979 62 NA NA NOT_NAMED 1979-08-04 15:00:00 TS 37.5203 -68.0182 main 497 419 P_____________ AL081979 37.5203 -68.0182 TD 30 -1 20 21
1979213N17306 1979 62 NA NA NOT_NAMED 1979-08-04 18:00:00 TS 38.5000 -67.5000 30 hurdat_atl main 414 345 O_____________ hurdat_atl AL081979 38.5000 -67.5000 TD 30 -1 22 21
1979213N17306 1979 62 NA NA NOT_NAMED 1979-08-04 21:00:00 TS 39.5293 -67.0435 main 351 318 P_____________ AL081979 39.5293 -67.0435 TD 30 -1 21 21
1979213N17306 1979 62 NA NA NOT_NAMED 1979-08-05 00:00:00 TS 40.5000 -66.5000 30 hurdat_atl main 321 255 O_____________ hurdat_atl AL081979 40.5000 -66.5000 TD 30 -1 20 29
1979213N17306 1979 62 NA NA NOT_NAMED 1979-08-05 03:00:00 TS 41.2655 -65.7637 main 244 168 P_____________ AL081979 41.2655 -65.7637 TD 30 -1 19 37
1979213N17306 1979 62 NA NA NOT_NAMED 1979-08-05 06:00:00 TS 42.0000 -65.0000 30 hurdat_atl main 168 96 O_____________ hurdat_atl AL081979 42.0000 -65.0000 TD 30 -1 18 30
1979213N17306 1979 62 NA NA NOT_NAMED 1979-08-05 09:00:00 TS 42.8418 -64.5591 main 96 65 P_____________ AL081979 42.8418 -64.5591 TD 30 -1 20 26
1979213N17306 1979 62 NA NA NOT_NAMED 1979-08-05 12:00:00 TS 43.8000 -63.8000 30 hurdat_atl main 64 7 O_____________ hurdat_atl AL081979 43.8000 -63.8000 TD 30 -1 27 40
1979213N17306 1979 62 NA NA NOT_NAMED 1979-08-05 15:00:00 TS 44.9242 -62.1549 main 11 0 P_____________ AL081979 44.9242 -62.1549 TD 27 -1 35 51
1979213N17306 1979 62 NA NA NOT_NAMED 1979-08-05 18:00:00 TS 46.0000 -60.0000 25 hurdat_atl main 0 0 O_____________ hurdat_atl AL081979 46.0000 -60.0000 TD 25 -1 36 57
1979213N17306 1979 62 NA NA NOT_NAMED 1979-08-05 21:00:00 TS 46.8589 -57.8294 main 78 0 P_____________ AL081979 46.8589 -57.8294 TD 25 -1 34 64
1979213N17306 1979 62 NA NA NOT_NAMED 1979-08-06 00:00:00 TS 47.5000 -55.5000 25 hurdat_atl main 0 0 O_____________ hurdat_atl AL081979 47.5000 -55.5000 TD 25 -1 33 71
1979213N17306 1979 62 NA NA NOT_NAMED 1979-08-06 03:00:00 TS 47.9328 -53.1251 main 0 0 P_____________ AL081979 47.9328 -53.1251 TD 25 -1 33 78
1979213N17306 1979 62 NA NA NOT_NAMED 1979-08-06 06:00:00 TS 48.2000 -50.6000 25 hurdat_atl main 162 162 O_____________ hurdat_atl AL081979 48.2000 -50.6000 TD 25 -1 35 83
1979213N17306 1979 62 NA NA NOT_NAMED 1979-08-06 09:00:00 TS 48.3859 -47.8647 main 362 362 P_____________ AL081979 48.3859 -47.8647 TD 22 -1 37 85
1979213N17306 1979 62 NA NA NOT_NAMED 1979-08-06 12:00:00 TS 48.5000 -45.0000 20 hurdat_atl main 573 O_____________ hurdat_atl AL081979 48.5000 -45.0000 TD 20 -1 38 87

IBTrACS Databaseについて

本データベースは、米国NOAAが公開する1842年以降の世界の熱帯低気圧のベストトラックデータアーカイブInternational Best Track Archive for Climate Stewardship (IBTrACS)を、ウェブで閲覧しやすい形式に変換したものです。

最終更新日:2021-10-21